Alvechurch, United Kingdom
Current Conditions -  °F | °C
As of 6:50 AM on Monday 24 Nov 2014 (Local Time) from EGBB Reporting Station
Clear Clear  
Wind Chill: 27°   Ceiling: Unl
Heat Index: 32°   Visibility: 6mi
Dew Point: 30°   Wind: 5mph
Humidity: 93%   Direction: 140°SE
Pressure: 30.27"   Gusts: NA
Location:  52.35°N, 1.97°W
Report Text: EGBB 240650Z 14004KT CAVOK M00/M01 Q1025
Loading
Personal Weather Stations






























Interactive Weather Map New forecast layout! Learn more

10-Day Weather Forecast

Advertisements
Track Severe Weather on mobile